sensor_id;sensor_type;location;lat;lon;timestamp;P1;durP1;ratioP1;P2;durP2;ratioP2
11328;SDS011;5719;42.714;23.732;2023-03-24T00:02:02;36.80;;;18.10;;
11328;SDS011;5719;42.714;23.732;2023-03-24T00:04:31;39.00;;;15.70;;
11328;SDS011;5719;42.714;23.732;2023-03-24T00:06:58;42.85;;;17.67;;
11328;SDS011;5719;42.714;23.732;2023-03-24T00:09:25;33.85;;;16.08;;
11328;SDS011;5719;42.714;23.732;2023-03-24T00:11:54;28.45;;;13.75;;
11328;SDS011;5719;42.714;23.732;2023-03-24T00:14:21;21.58;;;11.90;;
11328;SDS011;5719;42.714;23.732;2023-03-24T00:16:49;21.95;;;11.73;;
11328;SDS011;5719;42.714;23.732;2023-03-24T00:19:18;19.50;;;11.00;;
11328;SDS011;5719;42.714;23.732;2023-03-24T00:21:46;18.67;;;10.40;;
11328;SDS011;5719;42.714;23.732;2023-03-24T00:24:13;17.92;;;9.85;;
11328;SDS011;5719;42.714;23.732;2023-03-24T00:26:40;16.95;;;9.50;;
11328;SDS011;5719;42.714;23.732;2023-03-24T00:29:08;12.52;;;8.63;;
11328;SDS011;5719;42.714;23.732;2023-03-24T00:31:36;13.80;;;8.40;;
11328;SDS011;5719;42.714;23.732;2023-03-24T00:34:06;13.13;;;7.88;;
11328;SDS011;5719;42.714;23.732;2023-03-24T00:36:34;12.10;;;7.43;;
11328;SDS011;5719;42.714;23.732;2023-03-24T00:39:02;12.32;;;8.93;;
11328;SDS011;5719;42.714;23.732;2023-03-24T00:41:30;13.32;;;8.40;;
11328;SDS011;5719;42.714;23.732;2023-03-24T00:43:59;12.43;;;7.78;;
11328;SDS011;5719;42.714;23.732;2023-03-24T00:46:30;12.10;;;8.20;;
11328;SDS011;5719;42.714;23.732;2023-03-24T00:48:58;14.95;;;8.43;;
11328;SDS011;5719;42.714;23.732;2023-03-24T00:51:32;12.23;;;8.15;;
11328;SDS011;5719;42.714;23.732;2023-03-24T00:54:01;14.02;;;8.10;;
11328;SDS011;5719;42.714;23.732;2023-03-24T00:56:29;11.20;;;7.93;;
11328;SDS011;5719;42.714;23.732;2023-03-24T00:58:57;11.85;;;7.63;;
11328;SDS011;5719;42.714;23.732;2023-03-24T01:01:26;13.30;;;7.95;;
11328;SDS011;5719;42.714;23.732;2023-03-24T01:03:57;14.00;;;8.02;;
11328;SDS011;5719;42.714;23.732;2023-03-24T01:06:24;15.55;;;7.53;;
11328;SDS011;5719;42.714;23.732;2023-03-24T01:08:53;11.88;;;7.18;;
11328;SDS011;5719;42.714;23.732;2023-03-24T01:11:20;12.55;;;7.35;;
11328;SDS011;5719;42.714;23.732;2023-03-24T01:13:48;13.35;;;8.77;;
11328;SDS011;5719;42.714;23.732;2023-03-24T01:16:16;13.82;;;8.90;;
11328;SDS011;5719;42.714;23.732;2023-03-24T01:18:43;11.50;;;8.07;;
11328;SDS011;5719;42.714;23.732;2023-03-24T01:21:11;11.23;;;7.80;;
11328;SDS011;5719;42.714;23.732;2023-03-24T01:23:38;11.73;;;7.82;;
11328;SDS011;5719;42.714;23.732;2023-03-24T01:26:09;12.25;;;7.47;;
11328;SDS011;5719;42.714;23.732;2023-03-24T01:28:36;10.45;;;7.53;;
11328;SDS011;5719;42.714;23.732;2023-03-24T01:31:05;13.10;;;8.27;;
11328;SDS011;5719;42.714;23.732;2023-03-24T01:33:34;11.90;;;7.22;;
11328;SDS011;5719;42.714;23.732;2023-03-24T01:36:01;12.43;;;7.70;;
11328;SDS011;5719;42.714;23.732;2023-03-24T01:38:28;15.63;;;7.70;;
11328;SDS011;5719;42.714;23.732;2023-03-24T01:40:55;9.27;;;6.95;;
11328;SDS011;5719;42.714;23.732;2023-03-24T01:43:24;11.18;;;7.72;;
11328;SDS011;5719;42.714;23.732;2023-03-24T01:46:05;14.60;;;7.67;;
11328;SDS011;5719;42.714;23.732;2023-03-24T01:48:39;10.68;;;6.72;;
11328;SDS011;5719;42.714;23.732;2023-03-24T01:51:15;11.05;;;7.18;;
11328;SDS011;5719;42.714;23.732;2023-03-24T01:53:47;10.07;;;6.40;;
11328;SDS011;5719;42.714;23.732;2023-03-24T01:56:18;10.07;;;6.70;;
11328;SDS011;5719;42.714;23.732;2023-03-24T01:58:48;12.82;;;7.53;;
11328;SDS011;5719;42.714;23.732;2023-03-24T02:01:17;10.95;;;6.95;;
11328;SDS011;5719;42.714;23.732;2023-03-24T02:03:46;13.70;;;7.82;;
11328;SDS011;5719;42.714;23.732;2023-03-24T02:06:13;15.75;;;7.35;;
11328;SDS011;5719;42.714;23.732;2023-03-24T02:08:45;11.60;;;6.93;;
11328;SDS011;5719;42.714;23.732;2023-03-24T02:11:17;13.70;;;7.80;;
11328;SDS011;5719;42.714;23.732;2023-03-24T02:13:44;17.63;;;7.80;;
11328;SDS011;5719;42.714;23.732;2023-03-24T02:16:22;12.73;;;7.70;;
11328;SDS011;5719;42.714;23.732;2023-03-24T02:19:03;13.07;;;7.90;;
11328;SDS011;5719;42.714;23.732;2023-03-24T02:21:54;12.98;;;8.05;;
11328;SDS011;5719;42.714;23.732;2023-03-24T02:25:05;12.73;;;7.65;;
11328;SDS011;5719;42.714;23.732;2023-03-24T02:27:59;16.52;;;7.75;;
11328;SDS011;5719;42.714;23.732;2023-03-24T02:30:42;13.73;;;7.80;;
11328;SDS011;5719;42.714;23.732;2023-03-24T02:39:34;14.15;;;8.40;;
11328;SDS011;5719;42.714;23.732;2023-03-24T02:42:09;14.20;;;8.65;;
11328;SDS011;5719;42.714;23.732;2023-03-24T02:44:47;10.45;;;7.20;;
11328;SDS011;5719;42.714;23.732;2023-03-24T02:47:22;13.10;;;7.85;;
11328;SDS011;5719;42.714;23.732;2023-03-24T02:49:55;12.73;;;7.75;;
11328;SDS011;5719;42.714;23.732;2023-03-24T02:52:30;11.27;;;6.97;;
11328;SDS011;5719;42.714;23.732;2023-03-24T02:55:08;10.93;;;8.07;;
11328;SDS011;5719;42.714;23.732;2023-03-24T02:57:41;14.18;;;8.32;;
11328;SDS011;5719;42.714;23.732;2023-03-24T03:00:17;14.20;;;7.90;;
11328;SDS011;5719;42.714;23.732;2023-03-24T03:02:49;15.57;;;8.88;;
11328;SDS011;5719;42.714;23.732;2023-03-24T03:05:21;13.52;;;8.52;;
11328;SDS011;5719;42.714;23.732;2023-03-24T03:07:53;15.55;;;8.85;;
11328;SDS011;5719;42.714;23.732;2023-03-24T03:10:26;12.40;;;8.07;;
11328;SDS011;5719;42.714;23.732;2023-03-24T03:12:58;12.40;;;7.97;;
11328;SDS011;5719;42.714;23.732;2023-03-24T03:15:32;13.68;;;8.73;;
11328;SDS011;5719;42.714;23.732;2023-03-24T03:18:04;13.02;;;8.90;;
11328;SDS011;5719;42.714;23.732;2023-03-24T03:20:37;12.52;;;8.30;;
11328;SDS011;5719;42.714;23.732;2023-03-24T03:23:15;14.95;;;8.63;;
11328;SDS011;5719;42.714;23.732;2023-03-24T03:25:47;10.65;;;7.70;;
11328;SDS011;5719;42.714;23.732;2023-03-24T03:28:20;12.20;;;8.18;;
11328;SDS011;5719;42.714;23.732;2023-03-24T03:30:50;13.10;;;7.95;;
11328;SDS011;5719;42.714;23.732;2023-03-24T03:33:20;12.23;;;7.68;;
11328;SDS011;5719;42.714;23.732;2023-03-24T03:35:51;12.25;;;7.85;;
11328;SDS011;5719;42.714;23.732;2023-03-24T03:38:23;13.82;;;7.60;;
11328;SDS011;5719;42.714;23.732;2023-03-24T03:40:58;12.27;;;7.95;;
11328;SDS011;5719;42.714;23.732;2023-03-24T03:43:26;11.90;;;8.00;;
11328;SDS011;5719;42.714;23.732;2023-03-24T03:45:53;16.63;;;7.88;;
11328;SDS011;5719;42.714;23.732;2023-03-24T03:48:20;12.38;;;7.55;;
11328;SDS011;5719;42.714;23.732;2023-03-24T03:50:50;10.35;;;6.82;;
11328;SDS011;5719;42.714;23.732;2023-03-24T03:53:18;15.45;;;7.95;;
11328;SDS011;5719;42.714;23.732;2023-03-24T03:55:48;11.18;;;7.15;;
11328;SDS011;5719;42.714;23.732;2023-03-24T03:58:17;11.50;;;7.28;;
11328;SDS011;5719;42.714;23.732;2023-03-24T04:00:44;16.35;;;7.82;;
11328;SDS011;5719;42.714;23.732;2023-03-24T04:03:25;12.40;;;8.30;;
11328;SDS011;5719;42.714;23.732;2023-03-24T04:06:02;11.20;;;7.95;;
11328;SDS011;5719;42.714;23.732;2023-03-24T04:08:37;13.50;;;8.63;;
11328;SDS011;5719;42.714;23.732;2023-03-24T04:11:17;16.92;;;8.00;;
11328;SDS011;5719;42.714;23.732;2023-03-24T04:14:21;13.20;;;7.68;;
11328;SDS011;5719;42.714;23.732;2023-03-24T04:17:01;13.38;;;8.02;;
11328;SDS011;5719;42.714;23.732;2023-03-24T04:19:38;14.48;;;8.77;;
11328;SDS011;5719;42.714;23.732;2023-03-24T04:22:21;13.20;;;8.45;;
11328;SDS011;5719;42.714;23.732;2023-03-24T04:24:53;11.27;;;7.97;;
11328;SDS011;5719;42.714;23.732;2023-03-24T04:27:27;12.18;;;7.90;;
11328;SDS011;5719;42.714;23.732;2023-03-24T04:30:06;21.42;;;9.95;;
11328;SDS011;5719;42.714;23.732;2023-03-24T04:32:43;17.83;;;8.95;;
11328;SDS011;5719;42.714;23.732;2023-03-24T04:35:16;19.63;;;11.73;;
11328;SDS011;5719;42.714;23.732;2023-03-24T04:37:55;19.75;;;10.80;;
11328;SDS011;5719;42.714;23.732;2023-03-24T04:40:26;27.30;;;12.20;;
11328;SDS011;5719;42.714;23.732;2023-03-24T04:42:57;24.90;;;11.65;;
11328;SDS011;5719;42.714;23.732;2023-03-24T04:45:29;20.95;;;10.88;;
11328;SDS011;5719;42.714;23.732;2023-03-24T04:47:58;14.77;;;9.60;;
11328;SDS011;5719;42.714;23.732;2023-03-24T04:50:27;17.30;;;9.77;;
11328;SDS011;5719;42.714;23.732;2023-03-24T04:52:56;15.25;;;9.63;;
11328;SDS011;5719;42.714;23.732;2023-03-24T04:58:28;15.98;;;8.73;;
11328;SDS011;5719;42.714;23.732;2023-03-24T05:00:57;15.48;;;8.18;;
11328;SDS011;5719;42.714;23.732;2023-03-24T05:03:24;15.65;;;9.10;;
11328;SDS011;5719;42.714;23.732;2023-03-24T05:05:51;14.10;;;8.75;;
11328;SDS011;5719;42.714;23.732;2023-03-24T05:08:18;13.35;;;7.50;;
11328;SDS011;5719;42.714;23.732;2023-03-24T05:10:46;13.32;;;7.93;;
11328;SDS011;5719;42.714;23.732;2023-03-24T05:13:14;12.43;;;7.93;;
11328;SDS011;5719;42.714;23.732;2023-03-24T05:15:42;13.57;;;7.82;;
11328;SDS011;5719;42.714;23.732;2023-03-24T05:18:10;15.73;;;8.52;;
11328;SDS011;5719;42.714;23.732;2023-03-24T05:20:37;16.17;;;8.38;;
11328;SDS011;5719;42.714;23.732;2023-03-24T05:23:04;15.95;;;8.32;;
11328;SDS011;5719;42.714;23.732;2023-03-24T05:25:31;13.18;;;7.50;;
11328;SDS011;5719;42.714;23.732;2023-03-24T05:27:58;9.90;;;7.20;;
11328;SDS011;5719;42.714;23.732;2023-03-24T05:30:25;11.98;;;6.80;;
11328;SDS011;5719;42.714;23.732;2023-03-24T05:32:52;9.40;;;6.88;;
11328;SDS011;5719;42.714;23.732;2023-03-24T05:35:20;12.43;;;7.80;;
11328;SDS011;5719;42.714;23.732;2023-03-24T05:37:48;10.80;;;7.35;;
11328;SDS011;5719;42.714;23.732;2023-03-24T05:40:15;10.93;;;7.70;;
11328;SDS011;5719;42.714;23.732;2023-03-24T05:42:42;11.27;;;7.93;;
11328;SDS011;5719;42.714;23.732;2023-03-24T05:45:10;12.60;;;7.35;;
11328;SDS011;5719;42.714;23.732;2023-03-24T05:47:37;10.70;;;7.40;;
11328;SDS011;5719;42.714;23.732;2023-03-24T05:50:04;10.63;;;7.10;;
11328;SDS011;5719;42.714;23.732;2023-03-24T05:52:33;9.88;;;7.13;;
11328;SDS011;5719;42.714;23.732;2023-03-24T05:55:01;9.90;;;7.45;;
11328;SDS011;5719;42.714;23.732;2023-03-24T05:57:28;17.20;;;7.97;;
11328;SDS011;5719;42.714;23.732;2023-03-24T05:59:55;12.60;;;7.25;;
11328;SDS011;5719;42.714;23.732;2023-03-24T06:02:22;14.10;;;7.00;;
11328;SDS011;5719;42.714;23.732;2023-03-24T06:04:49;11.63;;;7.07;;
11328;SDS011;5719;42.714;23.732;2023-03-24T06:07:17;13.02;;;7.18;;
11328;SDS011;5719;42.714;23.732;2023-03-24T06:09:45;12.23;;;6.90;;
11328;SDS011;5719;42.714;23.732;2023-03-24T06:12:14;13.15;;;7.75;;
11328;SDS011;5719;42.714;23.732;2023-03-24T06:14:41;10.15;;;6.97;;
11328;SDS011;5719;42.714;23.732;2023-03-24T06:17:09;11.57;;;7.50;;
11328;SDS011;5719;42.714;23.732;2023-03-24T06:19:39;9.23;;;7.28;;
11328;SDS011;5719;42.714;23.732;2023-03-24T06:22:14;11.65;;;8.20;;
11328;SDS011;5719;42.714;23.732;2023-03-24T06:24:41;10.60;;;8.18;;
11328;SDS011;5719;42.714;23.732;2023-03-24T06:27:10;10.60;;;8.15;;
11328;SDS011;5719;42.714;23.732;2023-03-24T06:29:38;11.00;;;6.85;;
11328;SDS011;5719;42.714;23.732;2023-03-24T06:32:08;10.68;;;7.45;;
11328;SDS011;5719;42.714;23.732;2023-03-24T06:34:35;10.18;;;6.43;;
11328;SDS011;5719;42.714;23.732;2023-03-24T06:37:03;9.85;;;7.18;;
11328;SDS011;5719;42.714;23.732;2023-03-24T06:39:29;9.68;;;6.97;;
11328;SDS011;5719;42.714;23.732;2023-03-24T06:41:57;8.38;;;6.38;;
11328;SDS011;5719;42.714;23.732;2023-03-24T06:44:25;8.02;;;6.38;;
11328;SDS011;5719;42.714;23.732;2023-03-24T06:46:52;8.75;;;6.50;;
11328;SDS011;5719;42.714;23.732;2023-03-24T06:49:19;7.65;;;6.28;;
11328;SDS011;5719;42.714;23.732;2023-03-24T06:51:46;11.10;;;6.68;;
11328;SDS011;5719;42.714;23.732;2023-03-24T06:54:13;8.30;;;6.43;;
11328;SDS011;5719;42.714;23.732;2023-03-24T06:56:41;9.95;;;6.88;;
11328;SDS011;5719;42.714;23.732;2023-03-24T06:59:08;8.52;;;6.45;;
11328;SDS011;5719;42.714;23.732;2023-03-24T07:01:36;13.23;;;7.28;;
11328;SDS011;5719;42.714;23.732;2023-03-24T07:04:04;10.18;;;6.65;;
11328;SDS011;5719;42.714;23.732;2023-03-24T07:06:31;10.80;;;7.70;;
11328;SDS011;5719;42.714;23.732;2023-03-24T07:08:58;7.80;;;6.07;;
11328;SDS011;5719;42.714;23.732;2023-03-24T07:11:26;11.73;;;6.95;;
11328;SDS011;5719;42.714;23.732;2023-03-24T07:13:53;11.85;;;6.85;;
11328;SDS011;5719;42.714;23.732;2023-03-24T07:16:20;8.38;;;6.35;;
11328;SDS011;5719;42.714;23.732;2023-03-24T07:18:49;9.52;;;6.65;;
11328;SDS011;5719;42.714;23.732;2023-03-24T07:21:16;9.57;;;6.68;;
11328;SDS011;5719;42.714;23.732;2023-03-24T07:23:43;9.30;;;6.28;;
11328;SDS011;5719;42.714;23.732;2023-03-24T07:26:10;7.35;;;6.03;;
11328;SDS011;5719;42.714;23.732;2023-03-24T07:28:37;9.48;;;6.88;;
11328;SDS011;5719;42.714;23.732;2023-03-24T07:31:05;8.70;;;6.35;;
11328;SDS011;5719;42.714;23.732;2023-03-24T07:33:34;8.82;;;6.15;;
11328;SDS011;5719;42.714;23.732;2023-03-24T07:36:03;7.20;;;5.65;;
11328;SDS011;5719;42.714;23.732;2023-03-24T07:38:31;9.20;;;6.10;;
11328;SDS011;5719;42.714;23.732;2023-03-24T07:40:59;8.00;;;6.43;;
11328;SDS011;5719;42.714;23.732;2023-03-24T07:43:26;9.38;;;7.47;;
11328;SDS011;5719;42.714;23.732;2023-03-24T07:45:53;12.18;;;7.35;;
11328;SDS011;5719;42.714;23.732;2023-03-24T07:48:20;8.70;;;6.55;;
11328;SDS011;5719;42.714;23.732;2023-03-24T07:50:47;7.50;;;6.13;;
11328;SDS011;5719;42.714;23.732;2023-03-24T07:53:15;10.10;;;6.90;;
11328;SDS011;5719;42.714;23.732;2023-03-24T07:55:44;8.95;;;6.97;;
11328;SDS011;5719;42.714;23.732;2023-03-24T07:58:11;9.10;;;6.82;;
11328;SDS011;5719;42.714;23.732;2023-03-24T08:00:38;10.05;;;6.50;;
11328;SDS011;5719;42.714;23.732;2023-03-24T08:03:07;7.85;;;6.45;;
11328;SDS011;5719;42.714;23.732;2023-03-24T08:05:39;8.07;;;6.30;;
11328;SDS011;5719;42.714;23.732;2023-03-24T08:08:07;7.70;;;6.53;;
11328;SDS011;5719;42.714;23.732;2023-03-24T08:10:36;10.07;;;7.13;;
11328;SDS011;5719;42.714;23.732;2023-03-24T08:13:03;12.43;;;7.38;;
11328;SDS011;5719;42.714;23.732;2023-03-24T08:15:30;10.00;;;7.75;;
11328;SDS011;5719;42.714;23.732;2023-03-24T08:17:57;8.93;;;6.85;;
11328;SDS011;5719;42.714;23.732;2023-03-24T08:20:24;10.85;;;6.95;;
11328;SDS011;5719;42.714;23.732;2023-03-24T08:22:51;9.55;;;7.40;;
11328;SDS011;5719;42.714;23.732;2023-03-24T08:25:19;10.65;;;7.47;;
11328;SDS011;5719;42.714;23.732;2023-03-24T08:27:49;13.38;;;8.30;;
11328;SDS011;5719;42.714;23.732;2023-03-24T08:30:16;8.20;;;7.32;;
11328;SDS011;5719;42.714;23.732;2023-03-24T08:32:45;8.73;;;7.05;;
11328;SDS011;5719;42.714;23.732;2023-03-24T08:35:14;9.35;;;6.68;;
11328;SDS011;5719;42.714;23.732;2023-03-24T08:37:43;10.05;;;7.22;;
11328;SDS011;5719;42.714;23.732;2023-03-24T08:40:11;12.20;;;7.13;;
11328;SDS011;5719;42.714;23.732;2023-03-24T08:42:42;9.05;;;6.90;;
11328;SDS011;5719;42.714;23.732;2023-03-24T08:45:11;7.47;;;6.32;;
11328;SDS011;5719;42.714;23.732;2023-03-24T08:47:39;10.90;;;7.28;;
11328;SDS011;5719;42.714;23.732;2023-03-24T08:50:07;13.65;;;7.32;;
11328;SDS011;5719;42.714;23.732;2023-03-24T08:52:35;8.38;;;7.22;;
11328;SDS011;5719;42.714;23.732;2023-03-24T08:55:02;9.68;;;7.07;;
11328;SDS011;5719;42.714;23.732;2023-03-24T08:57:29;8.10;;;6.53;;
11328;SDS011;5719;42.714;23.732;2023-03-24T08:59:57;9.20;;;6.80;;
11328;SDS011;5719;42.714;23.732;2023-03-24T09:02:25;11.15;;;7.88;;
11328;SDS011;5719;42.714;23.732;2023-03-24T09:04:52;9.68;;;6.18;;
11328;SDS011;5719;42.714;23.732;2023-03-24T09:07:20;11.52;;;6.97;;
11328;SDS011;5719;42.714;23.732;2023-03-24T09:09:47;9.05;;;6.53;;
11328;SDS011;5719;42.714;23.732;2023-03-24T09:12:14;9.52;;;6.50;;
11328;SDS011;5719;42.714;23.732;2023-03-24T09:14:46;10.15;;;6.50;;
11328;SDS011;5719;42.714;23.732;2023-03-24T09:17:13;6.82;;;5.80;;
11328;SDS011;5719;42.714;23.732;2023-03-24T09:19:42;9.95;;;5.75;;
11328;SDS011;5719;42.714;23.732;2023-03-24T09:22:09;10.63;;;6.57;;
11328;SDS011;5719;42.714;23.732;2023-03-24T09:24:37;10.10;;;6.57;;
11328;SDS011;5719;42.714;23.732;2023-03-24T09:27:04;9.23;;;6.07;;
11328;SDS011;5719;42.714;23.732;2023-03-24T09:29:31;7.65;;;6.60;;
11328;SDS011;5719;42.714;23.732;2023-03-24T09:31:58;11.13;;;7.18;;
11328;SDS011;5719;42.714;23.732;2023-03-24T09:34:25;7.55;;;6.00;;
11328;SDS011;5719;42.714;23.732;2023-03-24T09:36:54;9.27;;;6.10;;
11328;SDS011;5719;42.714;23.732;2023-03-24T09:39:21;10.25;;;6.53;;
11328;SDS011;5719;42.714;23.732;2023-03-24T09:41:48;9.93;;;6.05;;
11328;SDS011;5719;42.714;23.732;2023-03-24T09:44:20;9.32;;;5.75;;
11328;SDS011;5719;42.714;23.732;2023-03-24T09:46:51;5.80;;;5.18;;
11328;SDS011;5719;42.714;23.732;2023-03-24T09:49:22;11.88;;;5.78;;
11328;SDS011;5719;42.714;23.732;2023-03-24T09:51:55;6.18;;;5.32;;
11328;SDS011;5719;42.714;23.732;2023-03-24T09:54:27;6.47;;;5.03;;
11328;SDS011;5719;42.714;23.732;2023-03-24T09:57:01;6.80;;;5.22;;
11328;SDS011;5719;42.714;23.732;2023-03-24T09:59:31;6.47;;;5.10;;
11328;SDS011;5719;42.714;23.732;2023-03-24T10:02:00;8.93;;;4.78;;
11328;SDS011;5719;42.714;23.732;2023-03-24T10:04:32;5.22;;;4.72;;
11328;SDS011;5719;42.714;23.732;2023-03-24T10:07:02;4.32;;;3.92;;
11328;SDS011;5719;42.714;23.732;2023-03-24T10:09:35;6.15;;;4.55;;
11328;SDS011;5719;42.714;23.732;2023-03-24T10:12:07;9.80;;;4.15;;
11328;SDS011;5719;42.714;23.732;2023-03-24T10:14:49;7.07;;;4.25;;
11328;SDS011;5719;42.714;23.732;2023-03-24T10:17:25;4.70;;;4.07;;
11328;SDS011;5719;42.714;23.732;2023-03-24T10:20:03;5.35;;;4.30;;
11328;SDS011;5719;42.714;23.732;2023-03-24T10:22:39;8.57;;;3.85;;
11328;SDS011;5719;42.714;23.732;2023-03-24T10:25:15;4.30;;;3.90;;
11328;SDS011;5719;42.714;23.732;2023-03-24T10:27:49;5.82;;;4.10;;
11328;SDS011;5719;42.714;23.732;2023-03-24T10:30:20;3.92;;;3.45;;
11328;SDS011;5719;42.714;23.732;2023-03-24T10:32:50;4.78;;;3.50;;
11328;SDS011;5719;42.714;23.732;2023-03-24T10:35:19;3.88;;;3.47;;
11328;SDS011;5719;42.714;23.732;2023-03-24T10:37:51;3.45;;;3.15;;
11328;SDS011;5719;42.714;23.732;2023-03-24T10:40:23;4.40;;;3.58;;
11328;SDS011;5719;42.714;23.732;2023-03-24T10:42:53;5.30;;;3.22;;
11328;SDS011;5719;42.714;23.732;2023-03-24T10:45:23;3.25;;;3.05;;
11328;SDS011;5719;42.714;23.732;2023-03-24T10:47:53;3.28;;;2.97;;
11328;SDS011;5719;42.714;23.732;2023-03-24T10:50:24;3.08;;;2.80;;
11328;SDS011;5719;42.714;23.732;2023-03-24T10:52:54;5.05;;;3.22;;
11328;SDS011;5719;42.714;23.732;2023-03-24T10:55:22;2.70;;;2.50;;
11328;SDS011;5719;42.714;23.732;2023-03-24T10:57:56;2.92;;;2.72;;
11328;SDS011;5719;42.714;23.732;2023-03-24T11:00:25;3.38;;;2.75;;
11328;SDS011;5719;42.714;23.732;2023-03-24T11:02:56;3.05;;;2.75;;
11328;SDS011;5719;42.714;23.732;2023-03-24T11:05:26;3.97;;;3.35;;
11328;SDS011;5719;42.714;23.732;2023-03-24T11:08:10;2.80;;;2.60;;
11328;SDS011;5719;42.714;23.732;2023-03-24T11:10:40;3.58;;;3.15;;
11328;SDS011;5719;42.714;23.732;2023-03-24T11:13:14;3.72;;;2.72;;
11328;SDS011;5719;42.714;23.732;2023-03-24T11:15:51;3.22;;;2.92;;
11328;SDS011;5719;42.714;23.732;2023-03-24T11:18:20;3.05;;;2.78;;
11328;SDS011;5719;42.714;23.732;2023-03-24T11:20:49;7.13;;;3.10;;
11328;SDS011;5719;42.714;23.732;2023-03-24T11:23:25;2.38;;;2.20;;
11328;SDS011;5719;42.714;23.732;2023-03-24T11:26:01;2.78;;;2.58;;
11328;SDS011;5719;42.714;23.732;2023-03-24T11:28:34;2.60;;;2.40;;
11328;SDS011;5719;42.714;23.732;2023-03-24T11:31:05;2.70;;;2.50;;
11328;SDS011;5719;42.714;23.732;2023-03-24T11:33:35;3.97;;;3.08;;
11328;SDS011;5719;42.714;23.732;2023-03-24T11:39:14;2.83;;;2.42;;
11328;SDS011;5719;42.714;23.732;2023-03-24T11:41:49;2.78;;;2.53;;
11328;SDS011;5719;42.714;23.732;2023-03-24T11:44:40;2.60;;;2.40;;
11328;SDS011;5719;42.714;23.732;2023-03-24T11:47:11;2.50;;;2.30;;
11328;SDS011;5719;42.714;23.732;2023-03-24T11:49:45;2.67;;;2.28;;
11328;SDS011;5719;42.714;23.732;2023-03-24T11:52:19;2.60;;;2.40;;
11328;SDS011;5719;42.714;23.732;2023-03-24T11:54:49;3.10;;;2.90;;
11328;SDS011;5719;42.714;23.732;2023-03-24T11:57:18;5.30;;;2.55;;
11328;SDS011;5719;42.714;23.732;2023-03-24T11:59:53;4.32;;;2.45;;
11328;SDS011;5719;42.714;23.732;2023-03-24T12:02:30;3.60;;;2.67;;
11328;SDS011;5719;42.714;23.732;2023-03-24T12:05:15;2.95;;;2.20;;
11328;SDS011;5719;42.714;23.732;2023-03-24T12:11:06;4.10;;;2.30;;
11328;SDS011;5719;42.714;23.732;2023-03-24T12:13:37;2.17;;;1.98;;
11328;SDS011;5719;42.714;23.732;2023-03-24T12:16:14;2.88;;;2.40;;
11328;SDS011;5719;42.714;23.732;2023-03-24T12:18:54;2.97;;;2.70;;
11328;SDS011;5719;42.714;23.732;2023-03-24T12:21:46;1.90;;;1.75;;
11328;SDS011;5719;42.714;23.732;2023-03-24T12:24:22;2.55;;;1.85;;
11328;SDS011;5719;42.714;23.732;2023-03-24T12:26:57;2.60;;;2.20;;
11328;SDS011;5719;42.714;23.732;2023-03-24T12:32:20;5.30;;;2.30;;
11328;SDS011;5719;42.714;23.732;2023-03-24T12:47:39;5.20;;;2.22;;
11328;SDS011;5719;42.714;23.732;2023-03-24T12:50:22;2.63;;;2.15;;
11328;SDS011;5719;42.714;23.732;2023-03-24T12:52:59;3.35;;;2.13;;
11328;SDS011;5719;42.714;23.732;2023-03-24T12:55:37;3.17;;;1.98;;
11328;SDS011;5719;42.714;23.732;2023-03-24T12:58:10;2.20;;;2.00;;
11328;SDS011;5719;42.714;23.732;2023-03-24T13:00:44;2.10;;;1.90;;
11328;SDS011;5719;42.714;23.732;2023-03-24T13:03:22;2.03;;;1.90;;
11328;SDS011;5719;42.714;23.732;2023-03-24T13:05:54;2.50;;;2.30;;
11328;SDS011;5719;42.714;23.732;2023-03-24T13:08:24;2.47;;;2.28;;
11328;SDS011;5719;42.714;23.732;2023-03-24T13:10:55;2.17;;;2.08;;
11328;SDS011;5719;42.714;23.732;2023-03-24T13:13:27;2.80;;;1.95;;
11328;SDS011;5719;42.714;23.732;2023-03-24T13:15:59;2.15;;;2.05;;
11328;SDS011;5719;42.714;23.732;2023-03-24T13:18:31;2.10;;;2.00;;
11328;SDS011;5719;42.714;23.732;2023-03-24T13:21:02;3.88;;;2.15;;
11328;SDS011;5719;42.714;23.732;2023-03-24T13:23:45;2.30;;;2.10;;
11328;SDS011;5719;42.714;23.732;2023-03-24T13:29:03;5.70;;;1.90;;
11328;SDS011;5719;42.714;23.732;2023-03-24T13:31:40;1.80;;;1.70;;
11328;SDS011;5719;42.714;23.732;2023-03-24T13:34:18;3.72;;;2.30;;
11328;SDS011;5719;42.714;23.732;2023-03-24T13:36:51;7.35;;;2.15;;
11328;SDS011;5719;42.714;23.732;2023-03-24T13:39:23;2.22;;;2.00;;
11328;SDS011;5719;42.714;23.732;2023-03-24T13:41:52;3.92;;;1.92;;
11328;SDS011;5719;42.714;23.732;2023-03-24T13:44:23;2.60;;;2.05;;
11328;SDS011;5719;42.714;23.732;2023-03-24T13:46:59;2.35;;;1.75;;
11328;SDS011;5719;42.714;23.732;2023-03-24T13:49:33;2.10;;;1.83;;
11328;SDS011;5719;42.714;23.732;2023-03-24T13:52:04;2.58;;;1.88;;
11328;SDS011;5719;42.714;23.732;2023-03-24T13:57:13;2.70;;;2.13;;
11328;SDS011;5719;42.714;23.732;2023-03-24T13:59:56;3.50;;;2.00;;
11328;SDS011;5719;42.714;23.732;2023-03-24T14:02:40;12.05;;;2.05;;
11328;SDS011;5719;42.714;23.732;2023-03-24T14:05:12;2.63;;;1.85;;
11328;SDS011;5719;42.714;23.732;2023-03-24T14:08:13;1.98;;;1.70;;
11328;SDS011;5719;42.714;23.732;2023-03-24T14:10:43;1.83;;;1.73;;
11328;SDS011;5719;42.714;23.732;2023-03-24T14:19:06;1.73;;;1.63;;
11328;SDS011;5719;42.714;23.732;2023-03-24T14:24:38;5.22;;;1.90;;
11328;SDS011;5719;42.714;23.732;2023-03-24T14:30:00;1.58;;;1.48;;
11328;SDS011;5719;42.714;23.732;2023-03-24T14:32:36;6.97;;;1.63;;
11328;SDS011;5719;42.714;23.732;2023-03-24T14:37:48;1.63;;;1.52;;
11328;SDS011;5719;42.714;23.732;2023-03-24T14:40:22;2.65;;;1.55;;
11328;SDS011;5719;42.714;23.732;2023-03-24T14:42:53;1.40;;;1.30;;
11328;SDS011;5719;42.714;23.732;2023-03-24T14:48:28;1.50;;;1.00;;
11328;SDS011;5719;42.714;23.732;2023-03-24T14:51:06;2.20;;;1.40;;
11328;SDS011;5719;42.714;23.732;2023-03-24T14:53:43;2.30;;;1.38;;
11328;SDS011;5719;42.714;23.732;2023-03-24T14:56:11;1.65;;;1.45;;
11328;SDS011;5719;42.714;23.732;2023-03-24T14:58:42;4.47;;;1.30;;
11328;SDS011;5719;42.714;23.732;2023-03-24T15:01:12;4.22;;;1.20;;
11328;SDS011;5719;42.714;23.732;2023-03-24T15:03:42;1.20;;;1.20;;
11328;SDS011;5719;42.714;23.732;2023-03-24T15:06:16;4.20;;;1.40;;
11328;SDS011;5719;42.714;23.732;2023-03-24T15:08:50;1.48;;;1.38;;
11328;SDS011;5719;42.714;23.732;2023-03-24T15:11:19;2.30;;;1.50;;
11328;SDS011;5719;42.714;23.732;2023-03-24T15:13:50;4.85;;;1.30;;
11328;SDS011;5719;42.714;23.732;2023-03-24T15:16:20;2.75;;;1.80;;
11328;SDS011;5719;42.714;23.732;2023-03-24T15:18:49;4.07;;;1.48;;
11328;SDS011;5719;42.714;23.732;2023-03-24T15:21:22;3.88;;;1.77;;
11328;SDS011;5719;42.714;23.732;2023-03-24T15:23:52;1.93;;;1.50;;
11328;SDS011;5719;42.714;23.732;2023-03-24T15:26:20;1.80;;;1.70;;
11328;SDS011;5719;42.714;23.732;2023-03-24T15:28:58;1.70;;;1.60;;
11328;SDS011;5719;42.714;23.732;2023-03-24T15:31:27;3.70;;;1.50;;
11328;SDS011;5719;42.714;23.732;2023-03-24T15:34:06;7.60;;;1.90;;
11328;SDS011;5719;42.714;23.732;2023-03-24T15:36:51;3.42;;;1.70;;
11328;SDS011;5719;42.714;23.732;2023-03-24T15:39:21;8.88;;;1.88;;
11328;SDS011;5719;42.714;23.732;2023-03-24T15:41:51;1.80;;;1.70;;
11328;SDS011;5719;42.714;23.732;2023-03-24T15:44:18;4.93;;;2.20;;
11328;SDS011;5719;42.714;23.732;2023-03-24T15:46:46;2.28;;;2.08;;
11328;SDS011;5719;42.714;23.732;2023-03-24T15:49:19;4.00;;;2.10;;
11328;SDS011;5719;42.714;23.732;2023-03-24T15:51:50;2.72;;;2.08;;
11328;SDS011;5719;42.714;23.732;2023-03-24T15:54:23;4.57;;;1.83;;
11328;SDS011;5719;42.714;23.732;2023-03-24T15:57:00;1.83;;;1.53;;
11328;SDS011;5719;42.714;23.732;2023-03-24T15:59:33;3.55;;;1.77;;